Umpqua, Oregon
Current Conditions -  °F | °C
As of 10:43 PM on Thursday 30 Oct 2014 (Local Time) from KRBG Reporting Station
Moderate Rain Moderate Rain  
Wind Chill: 58°   Ceiling: 500
Heat Index: 58°   Visibility: 2mi
Dew Point: 56°   Wind: 0mph
Humidity: 93%   Direction: NA
Pressure: 29.79"   Gusts: NA
Location:  43.37°N, 123.47°W
Report Text: KRBG 310543Z AUTO 00000KT 2SM RA BR OVC005 14/13 A2979 RMK AO2 CIG 002V009 P0004 T01440133
Loading
Personal Weather Stations






























Interactive Weather Map
Tropical Storm Tracking
New forecast layout! Learn more

10-Day Weather Forecast

Advertisements
Track Severe Weather on mobile